»·PEaware :: N501SC KPAO-KSAC

N501SC :: KPAO-KSAC

FLIGHT INFORMATION

Flight Status: Arrived
Operator: Privately registered:
United States
More flights under this callsign
Pilot: Anonymous 17878 (17878)
Aircraft: CESSNA 172 SKYHAWK
(C172)
More flights by this aircraft type
Origin: KPAO Palo Alto Of Santa Clara Co
United States
Destination: KSAC Sacramento Executive
United States
More flights between these airports :: More routes between these airports
Route: SJC V334 SAC
File this flight plan on PilotEdge
Remarks:
Altitude:
(Current/Filed)
5,000ft
Speed:
(Current/Filed)
115kts
Departed: 12-Jan-18 08:48 PM
Arrived: 12-Jan-18 09:37 PM
Distance/Time
Traveled:
69nm/0:49
Distance/Time
To Go:
Arrived

Flight Plot

Page will automatically refresh every two minutes.

Flight plan parsing failed; only flown route is shown


Map Options




Map Legend


Flown Route
Filed Route
Departure Airport
Arrival Airport
Navaid (VOR, NDB)
Fix

Horizontal Profiles

Position Reports

Time Latitude Longitude Heading Altitude Ground
Speed
12-Jan-18 20:34 37.455157 -122.111832 180 6ft 0kts
12-Jan-18 20:35 37.455157 -122.111832 180 6ft 0kts
12-Jan-18 20:36 37.455157 -122.111832 180 6ft 0kts
12-Jan-18 20:37 37.455157 -122.111832 180 6ft 0kts
12-Jan-18 20:38 37.455157 -122.111832 180 6ft 0kts
12-Jan-18 20:39 37.455157 -122.111832 180 6ft 0kts
12-Jan-18 20:40 37.455157 -122.111832 180 6ft 0kts
12-Jan-18 20:41 37.455080 -122.111836 186 6ft 0kts
12-Jan-18 20:42 37.455000 -122.111862 214 6ft 0kts
12-Jan-18 20:43 37.455000 -122.111862 216 6ft 0kts
12-Jan-18 20:44 37.455000 -122.111862 216 6ft 0kts
12-Jan-18 20:45 37.455000 -122.111862 216 6ft 0kts
12-Jan-18 20:46 37.454870 -122.111945 137 6ft 4kts
12-Jan-18 20:47 37.455065 -122.111535 207 6ft 8kts
12-Jan-18 20:48 37.455999 -122.111290 345 6ft 11kts
12-Jan-18 20:49 37.457666 -122.112773 339 6ft 0kts
12-Jan-18 20:50 37.457666 -122.112773 339 6ft 0kts
12-Jan-18 20:51 37.457666 -122.112773 339 6ft 0kts
12-Jan-18 20:52 37.457666 -122.112773 339 6ft 0kts
12-Jan-18 20:53 37.457689 -122.112739 88 6ft 3kts
12-Jan-18 20:54 37.462383 -122.116614 319 162ft 64kts
12-Jan-18 20:55 37.474528 -122.110782 77 1324ft 84kts
12-Jan-18 20:56 37.465132 -122.086685 123 2039ft 103kts
12-Jan-18 20:57 37.446933 -122.058032 124 2867ft 106kts
12-Jan-18 20:58 37.426130 -122.025297 126 3000ft 125kts
12-Jan-18 20:59 37.404621 -121.991471 125 3000ft 124kts
12-Jan-18 21:00 37.383728 -121.958452 125 3000ft 124kts
12-Jan-18 21:01 37.395335 -121.930779 18 3001ft 103kts
12-Jan-18 21:02 37.421394 -121.915629 18 3000ft 103kts
12-Jan-18 21:03 37.447245 -121.900841 17 3050ft 102kts
12-Jan-18 21:04 37.469535 -121.888319 15 3901ft 84kts
12-Jan-18 21:05 37.490462 -121.876685 15 4654ft 90kts
12-Jan-18 21:06 37.515391 -121.862434 18 5000ft 107kts
12-Jan-18 21:07 37.543885 -121.846008 18 5000ft 118kts
12-Jan-18 21:08 37.572843 -121.829284 18 4954ft 111kts
12-Jan-18 21:09 37.600280 -121.813630 17 4954ft 108kts
12-Jan-18 21:10 37.626728 -121.804187 7 4954ft 106kts
12-Jan-18 21:11 37.654106 -121.795785 7 4954ft 106kts
12-Jan-18 21:12 37.679015 -121.788187 7 4954ft 107kts
12-Jan-18 21:13 37.707732 -121.779410 7 4954ft 106kts
12-Jan-18 21:14 37.736008 -121.770769 7 4954ft 106kts
12-Jan-18 21:15 37.756424 -121.764556 12 4999ft 104kts
12-Jan-18 21:16 37.784451 -121.755948 12 4999ft 105kts
12-Jan-18 21:17 37.812690 -121.747280 12 5000ft 105kts
12-Jan-18 21:18 37.841097 -121.738558 12 5000ft 105kts
12-Jan-18 21:19 37.869441 -121.729850 12 5000ft 105kts
12-Jan-18 21:20 37.897758 -121.721150 12 5000ft 105kts
12-Jan-18 21:21 37.926056 -121.712450 12 5000ft 105kts
12-Jan-18 21:22 37.954366 -121.703726 11 4998ft 105kts
12-Jan-18 21:23 37.982881 -121.694942 11 4996ft 106kts
12-Jan-18 21:24 38.011522 -121.686108 10 4994ft 107kts
12-Jan-18 21:25 38.040313 -121.677221 10 4993ft 108kts
12-Jan-18 21:26 38.069762 -121.668012 9 4992ft 110kts
12-Jan-18 21:27 38.099730 -121.658706 9 4983ft 111kts
12-Jan-18 21:28 38.129908 -121.649363 9 4984ft 112kts
12-Jan-18 21:29 38.160180 -121.639993 9 4985ft 112kts
12-Jan-18 21:30 38.190593 -121.630573 9 4985ft 112kts
12-Jan-18 21:31 38.221450 -121.623164 3 4029ft 113kts
12-Jan-18 21:32 38.252705 -121.618807 3 3031ft 113kts
12-Jan-18 21:33 38.283416 -121.614841 3 2258ft 106kts
12-Jan-18 21:34 38.312288 -121.611275 2 1992ft 102kts
12-Jan-18 21:35 38.340680 -121.607785 2 1995ft 105kts
12-Jan-18 21:36 38.370058 -121.604182 2 1997ft 106kts
12-Jan-18 21:37 38.396875 -121.590537 32 2002ft 109kts
12-Jan-18 21:38 38.419839 -121.571594 28 1994ft 99kts
12-Jan-18 21:39 38.436450 -121.557075 31 1626ft 87kts
12-Jan-18 21:40 38.452681 -121.544519 31 1332ft 91kts
12-Jan-18 21:41 38.474410 -121.526218 29 775ft 94kts
12-Jan-18 21:42 38.495631 -121.508616 32 302ft 93kts
12-Jan-18 21:43 38.510071 -121.496645 18 27ft 14kts
12-Jan-18 21:44 38.511398 -121.498376 279 27ft 21kts

Navigation Log

Ident Type
Flight plan parsing failed, navigation log unavailable